Portada
METAR-TAF:

METAR-TAF

Aeroports :

Urgench, Uzbekistan

latitud: 41-35N, longitud: 060-38-42E, altitud: 98 m

Observació

L'informe es va fer fa 17 minuts, a les 11:00 UTC
Vent 10 kt del Est
Temperatura 20°C
Humitat 13%
Pressió 1023 hPa
Visibilitat 10 km o més
sense núvols per sota de 1500 mi sense presència de cumulonimbus.

METAR: UTNU 181100Z 09010KT CAVOK 20/M09 Q1023 R31/CLRD70 NOSIG

Hora: 16:17 (11:17 UTC)

Pronòstic

L'informe es va fer fa 6 hores i 17 minuts, a les 05:00 UTC
Pronòstic vàlid del 18 a les 06 UTC al 19 a les 06 UTC
Vent 12 kt del Est amb ràfegues de 22 kt
Visibilitat 10 km o més
sense núvols per sota de 1500 mi sense presència de cumulonimbus.
Temporalment
l' 18 a les 08 UTC al 18 a les 12 UTC
Vent 10 kt del Est/Sud-Est

TAF: UTNU 180500Z 1806/1906 08012G22KT CAVOK TEMPO 1808/1812 11010KT

Observacions i pronòstics meteorològics de més de 4000 aeroports (METAR i TAF).

Les estacions disponibles són els punts grocs i vermells al mapa.

Posi el ratolí al punt desitjat per veure el nom de l'estació.

Feu clic per veure les observacions i els pronòstics meteorològics.

Per canviar el mapa: feu clic els botons verds amb una creu de color negre per apropar; al botó verd amb un guió per allunyar la imatge; o en les fletxes verdes per a mapes adjacents.


METAR-TAF: